• Join FlightAware (Why Join?)
  • Login
  • US Flag 
09:16AM EST


 

Airport Tracker/Info


-or-


 

Live Flight TrackerFlight Track Log ✈ BJS262 ✈ 12-Jun-2014 ✈ KAPA - KCOE

Flight Track Log - Related Links

Times and Time Zones

All times are in EDT time to prevent confusion due to time zone crossing. See the BJS262 flight status page for this flight to view local times or setup timezone preferences in your user account.

Time Position Orientation Groundspeed Altitude Reporting Facility
EDT Latitude Longitude Course Direction KTS MPH feet Rate Location/Type
04:31PM 39.5000 -104.8333 311° West 249 287 8,000  Level Denver TRACON
04:32PM 39.4667 -104.7500 117° Southeast 295 339 8,900 1,842 Climbing Denver TRACON
04:33PM 39.5000 -104.6833 57° Northeast 258 297 11,500 2,505 Climbing Denver TRACON
04:34PM 39.5378 -104.6847 358° North 278 320 12,700 3,226 Climbing Denver Center
04:35PM 39.6194 -104.6761 North 291 335 16,500 3,435 Climbing Denver Center
04:36PM 39.7092 -104.6994 349° North 305 351 19,800 3,145 Climbing Denver Center
04:37PM 41.8303 -106.4982 311° West  Level FlightAware Approximate
04:37PM 39.7992 -104.7300 345° North 319 367 23,000  Level Denver Center
04:38PM 39.8906 -104.7625 345° North 340 391 25,600 2,448 Climbing Denver Center
04:39PM 39.9867 -104.7958 345° North 354 407 28,100 2,160 Climbing Denver Center
04:40PM 40.0894 -104.8314 345° North 379 436 30,100 1,935 Climbing Denver Center
04:41PM 40.1975 -104.8697 345° North 400 460 32,100 2,129 Climbing Denver Center
04:42PM 40.3317 -104.9175 345° North 414 476 34,500 2,371 Climbing Denver Center
04:43PM 40.4433 -104.9550 346° North 415 478 37,000 1,694 Climbing Denver Center
04:44PM 40.5558 -104.9928 346° North 416 479 38,000 484 Climbing Denver Center
04:45PM 40.6736 -105.0339 345° North 435 501 38,000  Level Denver Center
04:46PM 40.7858 -105.0914 339° North 435 501 38,000  Level Denver Center
04:47PM 40.8739 -105.1897 320° Northwest 417 480 38,000  Level Denver Center
04:48PM 40.9786 -105.3097 319° Northwest 417 480 38,000  Level Denver Center
04:49PM 41.0672 -105.4092 320° Northwest 417 480 38,000  Level Denver Center
04:50PM 41.1514 -105.5064 319° Northwest 417 480 38,000  Level Denver Center
04:51PM 41.2489 -105.6192 319° Northwest 417 480 38,000  Level Denver Center
04:52PM 41.3331 -105.7161 319° Northwest 416 479 38,000  Level Denver Center
04:53PM 41.4214 -105.8408 313° West 415 478 38,000  Level Denver Center
04:54PM 41.4947 -105.9481 312° West 413 475 38,000  Level Denver Center
04:55PM 41.5839 -106.0750 313° West 414 476 38,000  Level Denver Center
04:57PM 41.6583 -106.1836 313° West 416 479 38,000  Level Denver Center
04:58PM 41.7317 -106.2892 313° West 409 471 38,000  Level Denver Center
04:59PM 41.8186 -106.4161 313° West 410 472 38,000  Level Denver Center
05:00PM 41.8931 -106.5236 313° West 413 475 38,000  Level Denver Center
05:01PM 41.9803 -106.6503 313° West 414 476 38,000  Level Denver Center
05:02PM 42.0533 -106.7608 312° West 414 476 38,000  Level Denver Center
05:03PM 42.1361 -106.8864 312° West 404 465 38,000  Level Denver Center
05:04PM 42.2100 -106.9964 312° West 410 472 38,000  Level Denver Center
05:05PM 42.2953 -107.1231 312° West 410 472 38,000  Level Denver Center
05:06PM 42.3694 -107.2344 312° West 412 474 38,000  Level Denver Center
05:07PM 42.4300 -107.3261 312° West 413 475 38,000  Level Salt Lake Center
05:09PM 42.5850 -107.5664 311° West 411 473 38,000  Level Salt Lake Center
05:10PM 42.6544 -107.6803 310° West 411 473 38,000  Level Salt Lake Center
05:11PM 42.7347 -107.8133 309° West 408 470 38,000  Level Salt Lake Center
05:12PM 42.8039 -107.9256 310° West 407 468 38,000  Level Salt Lake Center
05:13PM 42.8822 -108.0594 309° West 408 470 38,000  Level Salt Lake Center
05:14PM 42.9508 -108.1719 310° West 407 468 38,000  Level Salt Lake Center
05:15PM 43.0225 -108.2950 309° West 405 466 38,000  Level Salt Lake Center
05:16PM 43.0939 -108.4144 309° West 405 466 38,000  Level Salt Lake Center
05:17PM 43.1636 -108.5347 309° West 405 466 38,000  Level Salt Lake Center
05:18PM 43.2342 -108.6547 309° West 405 466 38,000  Level Salt Lake Center
05:19PM 43.3194 -108.7997 309° West 406 467 38,000  Level Salt Lake Center
05:20PM 43.3906 -108.9200 309° West 406 467 38,000  Level Salt Lake Center
05:21PM 43.4606 -109.0425 308° West 407 468 38,000  Level Salt Lake Center
05:22PM 43.5311 -109.1647 309° West 407 468 38,000  Level Salt Lake Center
05:23PM 43.6031 -109.2894 309° West 413 475 38,000  Level Salt Lake Center
05:24PM 43.6747 -109.4156 308° West 415 478 38,000  Level Salt Lake Center
05:25PM 43.7544 -109.5528 309° West 415 478 38,000  Level Salt Lake Center
05:26PM 43.8336 -109.6931 308° West 415 478 38,000  Level Salt Lake Center
05:27PM 43.9042 -109.8139 309° West 416 479 38,000  Level Salt Lake Center
05:28PM 43.9828 -109.9550 308° West 417 480 38,000  Level Salt Lake Center
05:29PM 44.0497 -110.0758 308° West 416 479 38,000  Level Salt Lake Center
05:30PM 44.1169 -110.1964 308° West 414 476 38,000  Level Salt Lake Center
05:31PM 44.1939 -110.3342 308° West 410 472 38,000  Level Salt Lake Center
05:32PM 44.2600 -110.4553 307° West 409 471 38,000  Level Salt Lake Center
05:33PM 44.3367 -110.5925 308° West 404 465 38,000  Level Salt Lake Center
05:34PM 44.4008 -110.7131 307° West 403 464 38,000  Level Salt Lake Center
05:35PM 44.4772 -110.8517 308° West 403 464 38,000  Level Salt Lake Center
05:37PM 44.5422 -110.9711 307° West 403 464 38,000  Level Salt Lake Center
05:38PM 44.6178 -111.1111 307° West 404 465 38,000  Level Salt Lake Center
05:39PM 44.6828 -111.2331 307° West 408 470 38,000  Level Salt Lake Center
05:40PM 44.7583 -111.3733 307° West 409 471 38,000  Level Salt Lake Center
05:41PM 44.8225 -111.4942 307° West 409 471 38,000  Level Salt Lake Center
05:42PM 44.8981 -111.6361 307° West 408 470 38,000  Level Salt Lake Center
05:43PM 44.9631 -111.7594 307° West 409 471 38,000  Level Salt Lake Center
05:44PM 45.0397 -111.9058 307° West 413 475 38,000  Level Salt Lake Center
05:45PM 45.1119 -112.0456 306° West 414 476 38,000  Level Salt Lake Center
05:46PM 45.1803 -112.1772 306° West 414 476 38,000  Level Salt Lake Center
05:47PM 45.2458 -112.3028 307° West 413 475 38,000  Level Salt Lake Center
05:48PM 45.3214 -112.4511 306° West 414 476 38,000  Level Salt Lake Center
05:49PM 45.3939 -112.5931 306° West 414 476 38,000  Level Salt Lake Center
05:50PM 45.4625 -112.7281 306° West 415 478 38,000  Level Salt Lake Center
05:51PM 45.5314 -112.8639 306° West 414 476 38,000  Level Salt Lake Center
05:52PM 45.5992 -112.9992 306° West 415 478 38,000  Level Salt Lake Center
05:53PM 45.6667 -113.1328 306° West 409 471 38,000  Level Salt Lake Center
05:54PM 45.7394 -113.2769 306° West 408 470 38,000  Level Salt Lake Center
05:55PM 45.8058 -113.4119 305° West 407 468 38,000  Level Salt Lake Center
05:56PM 45.8722 -113.5458 305° West 406 467 38,000  Level Salt Lake Center
05:57PM 45.9394 -113.6822 305° West 410 472 38,000  Level Salt Lake Center
05:58PM 46.0072 -113.8181 306° West 412 474 38,000  Level Salt Lake Center
05:59PM 46.0794 -113.9636 306° West 409 471 38,000  Level Salt Lake Center
06:00PM 46.1442 -114.0928 306° West 405 466 38,000  Level Salt Lake Center
06:01PM 46.2128 -114.2358 305° West 405 466 38,000  Level Salt Lake Center
06:02PM 46.2775 -114.3700 305° West 405 466 38,000  Level Salt Lake Center
06:03PM 46.3464 -114.5128 305° West 405 466 38,000  Level Salt Lake Center
06:04PM 46.4097 -114.6458 305° West 404 465 38,000  Level Salt Lake Center
06:05PM 46.4731 -114.7792 305° West 402 463 38,000  Level Salt Lake Center
06:07PM 46.5411 -114.9228 305° West 402 463 38,000  Level Salt Lake Center
06:08PM 46.6019 -115.0547 304° West 399 459 38,000  Level Salt Lake Center
06:09PM 46.6683 -115.1947 305° West 400 460 38,000 -677 Level Salt Lake Center
06:10PM 46.7294 -115.3294 304° West 400 460 36,600 -1,790 Descending Salt Lake Center
06:11PM 46.7919 -115.4639 304° West 400 460 34,300 -2,081 Descending Salt Lake Center
06:12PM 46.8533 -115.5969 304° West 400 460 32,300 -2,032 Descending Salt Lake Center
06:13PM 46.9128 -115.7264 304° West 392 451 30,100 -1,897 Descending Salt Lake Center
06:14PM 46.9831 -115.8836 303° West 389 448 28,000 -2,089 Descending Seattle Center
06:15PM 47.0578 -116.0467 304° West 396 456 25,400 -2,311 Descending Seattle Center
06:16PM 47.1197 -116.1869 303° West 408 470 23,300 -2,049 Descending Seattle Center
06:17PM 47.1800 -116.3192 304° West 398 458 21,200 -2,000 Descending Seattle Center
06:18PM 47.2378 -116.4489 303° West 388 447 19,200 -2,066 Descending Seattle Center
06:19PM 47.2939 -116.5719 304° West 367 422 17,000 -1,951 Descending Seattle Center
06:20PM 47.3469 -116.6928 303° West 355 409 15,200 -1,805 Descending Seattle Center
06:21PM 47.3994 -116.8139 303° West 354 407 13,300 -1,854 Descending Seattle Center
06:22PM 47.4528 -116.9472 301° West 342 394 11,400 -1,707 Descending Seattle Center
06:23PM 47.5069 -117.0447 309° West 299 344 9,800 -1,426 Descending Seattle Center
06:24PM 47.5758 -117.0875 337° Northwest 274 315 8,500 -1,610 Descending Seattle Center
06:25PM 47.6433 -117.1317 336° Northwest 271 312 6,500 -976 Descending Seattle Center
06:26PM 47.7006 -117.1286 North 214 246 6,500 -689 Level Seattle Center
06:27PM 47.7261 -117.0411 67° East 231 266 5,100 -1,220 Descending Seattle Center
06:28PM 47.7422 -116.9575 74° East 215 247 4,000 -976 Descending Seattle Center
06:29PM 47.7592 -116.8964 68° East 153 176 3,100 -689 Descending Seattle Center
06:30PM 47.7703 -116.8428 73° East 150 173 2,600 -492 Descending Seattle Center
06:32PM 47.7667 -116.8167 70° East  Level FlightAware Approximate
06:39PM 47.7743 -116.8196 70° East  Level Estimated
06:40PM 47.7743 -116.8196 70° East  Level Estimated
06:41PM 47.7743 -116.8196 70° East  Level Estimated
06:42PM 47.7743 -116.8196 70° East  Level Estimated